Time;durP1;ratioP1;P1;durP2;ratioP2;P2;SDS_P1;SDS_P2;PMS_P1;PMS_P2;Temp;Humidity;BMP_temperature;BMP_pressure;BME280_temperature;BME280_humidity;BME280_pressure;Samples;Min_cycle;Max_cycle;Signal;HPM_P1;HPM_P2
2023/06/06 00:00:08;;;;;;;18.60;7.65;;;;;;;4.55;68.98;97165.75;5072167;28;20064;-52
2023/06/06 00:02:50;;;;;;;20.58;7.90;;;;;;;4.42;68.86;97163.91;5106293;27;20908;-53
2023/06/06 00:05:17;;;;;;;17.85;7.28;;;;;;;4.40;69.42;97160.66;5110935;28;20059;-53
2023/06/06 00:07:45;;;;;;;20.20;7.80;;;;;;;4.45;69.65;97158.25;5106187;28;20052;-51
2023/06/06 00:10:14;;;;;;;18.67;7.55;;;;;;;4.29;69.51;97156.84;5111226;28;20090;-53
2023/06/06 00:12:41;;;;;;;17.98;7.82;;;;;;;4.33;69.86;97159.84;5106545;28;20048;-51
2023/06/06 00:15:09;;;;;;;16.23;7.85;;;;;;;4.22;69.81;97162.09;5110854;28;20047;-52
2023/06/06 00:17:38;;;;;;;21.92;7.72;;;;;;;4.31;70.46;97161.88;5106766;28;20050;-51
2023/06/06 00:20:06;;;;;;;16.42;8.13;;;;;;;4.31;70.66;97161.88;5110810;28;20050;-50
2023/06/06 00:22:35;;;;;;;17.98;8.27;;;;;;;4.23;70.41;97155.81;5106448;28;20396;-51
2023/06/06 00:25:03;;;;;;;23.80;8.48;;;;;;;4.11;70.67;97159.25;5089964;28;20736;-50
2023/06/06 00:27:34;;;;;;;20.73;7.95;;;;;;;4.02;71.24;97151.59;5085585;28;20051;-50
2023/06/06 00:30:01;;;;;;;20.58;8.02;;;;;;;4.03;71.40;97155.00;5089932;28;20051;-51
2023/06/06 00:32:28;;;;;;;18.95;8.52;;;;;;;4.14;71.57;97159.66;5082767;28;20036;-50
2023/06/06 00:34:55;;;;;;;20.50;8.07;;;;;;;4.07;71.09;97160.66;5090128;28;20051;-51
2023/06/06 00:37:22;;;;;;;17.02;7.82;;;;;;;4.08;71.55;97152.59;5089774;28;20052;-50
2023/06/06 00:39:49;;;;;;;23.08;8.48;;;;;;;4.02;71.28;97148.97;5084431;28;20049;-50
2023/06/06 00:42:17;;;;;;;26.10;8.52;;;;;;;3.92;71.89;97153.78;5090062;28;20045;-50
2023/06/06 00:44:43;;;;;;;21.63;8.98;;;;;;;3.91;72.35;97148.72;5085390;28;20052;-50
2023/06/06 00:47:11;;;;;;;17.83;8.77;;;;;;;3.86;71.75;97149.34;5088475;28;20048;-50
2023/06/06 00:49:39;;;;;;;23.08;8.30;;;;;;;3.85;72.51;97148.50;5084796;28;20123;-52
2023/06/06 00:52:06;;;;;;;21.75;8.45;;;;;;;3.84;72.78;97157.41;5086355;28;20551;-51
2023/06/06 00:54:34;;;;;;;22.60;8.45;;;;;;;3.80;72.60;97152.72;5106452;28;20520;-51
2023/06/06 00:57:03;;;;;;;16.75;8.05;;;;;;;3.84;72.30;97159.22;5105459;28;20052;-53
2023/06/06 00:59:30;;;;;;;22.65;8.65;;;;;;;3.78;72.58;97154.75;5109827;28;20054;-52
2023/06/06 01:01:58;;;;;;;24.55;8.32;;;;;;;3.76;72.64;97156.75;5105012;28;20044;-50
2023/06/06 01:04:26;;;;;;;20.90;8.15;;;;;;;3.75;73.11;97153.34;5109958;28;20044;-50
2023/06/06 01:06:52;;;;;;;19.52;8.27;;;;;;;3.76;73.10;97154.13;5104682;28;20052;-50
2023/06/06 01:09:19;;;;;;;18.42;8.43;;;;;;;3.68;73.04;97149.09;5106469;28;20043;-51
2023/06/06 01:12:00;;;;;;;17.02;7.95;;;;;;;3.69;72.96;97150.69;5109834;28;20070;-52
2023/06/06 01:15:07;;;;;;;20.73;8.07;;;;;;;3.73;73.67;97150.13;5091092;28;20044;-51
2023/06/06 01:17:36;;;;;;;23.27;8.82;;;;;;;3.68;73.37;97149.91;5095468;28;20044;-51
2023/06/06 01:20:06;;;;;;;18.73;7.78;;;;;;;3.60;73.55;97155.31;5091797;28;20067;-51
2023/06/06 01:22:35;;;;;;;25.38;7.95;;;;;;;3.60;74.01;97152.69;5095903;28;20074;-50
2023/06/06 01:25:03;;;;;;;16.15;8.23;;;;;;;3.44;74.52;97152.03;5071396;28;20421;-52
2023/06/06 01:27:33;;;;;;;20.63;7.93;;;;;;;3.38;74.97;97142.31;5075214;28;20497;-52
2023/06/06 01:30:01;;;;;;;19.33;8.48;;;;;;;3.40;74.85;97139.50;5071343;28;20128;-50
2023/06/06 01:32:42;;;;;;;26.02;8.65;;;;;;;3.32;75.43;97137.88;5072057;28;20033;-51
2023/06/06 01:38:14;;;;;;;16.42;7.63;;;;;;;3.30;75.72;97139.09;5065736;28;20387;-50
2023/06/06 01:40:44;;;;;;;19.17;8.40;;;;;;;3.22;76.18;97140.03;5070641;28;20045;-50
2023/06/06 01:43:12;;;;;;;24.35;8.10;;;;;;;3.19;76.63;97132.59;5064674;28;20041;-50
2023/06/06 01:45:40;;;;;;;19.10;7.65;;;;;;;3.18;76.59;97138.81;5070171;28;20085;-50
2023/06/06 01:48:08;;;;;;;14.93;7.57;;;;;;;3.11;76.98;97146.66;5065656;28;20134;-51
2023/06/06 01:50:35;;;;;;;23.90;8.68;;;;;;;3.10;77.67;97147.66;5069989;28;20045;-50
2023/06/06 01:53:04;;;;;;;21.88;8.45;;;;;;;3.15;76.90;97153.13;5065555;28;20399;-51
2023/06/06 01:55:31;;;;;;;21.38;8.10;;;;;;;3.04;77.22;97151.06;5067612;28;20124;-53
2023/06/06 01:57:58;;;;;;;17.08;7.80;;;;;;;3.11;77.20;97157.13;5065872;28;20056;-51
2023/06/06 02:00:26;;;;;;;19.50;8.15;;;;;;;3.05;77.08;97147.41;5069990;28;20510;-50
2023/06/06 02:02:52;;;;;;;21.30;8.20;;;;;;;3.03;77.28;97152.06;5065304;28;20044;-51
2023/06/06 02:05:20;;;;;;;17.10;7.63;;;;;;;2.93;77.84;97149.78;5069785;28;20049;-50
2023/06/06 02:07:49;;;;;;;19.02;7.72;;;;;;;2.87;78.19;97138.28;5067024;28;20458;-52
2023/06/06 02:10:17;;;;;;;16.15;7.78;;;;;;;2.90;77.74;97147.56;5069129;28;20367;-50
2023/06/06 02:12:44;;;;;;;18.00;7.53;;;;;;;2.87;77.44;97147.94;5067478;28;20036;-51
2023/06/06 02:15:11;;;;;;;16.48;7.30;;;;;;;2.81;77.67;97139.03;5065988;28;20045;-50
2023/06/06 02:17:38;;;;;;;17.92;7.65;;;;;;;2.81;77.87;97144.28;5065883;28;20049;-52
2023/06/06 02:20:09;;;;;;;13.93;7.35;;;;;;;2.78;77.98;97141.22;5069592;28;20124;-52
2023/06/06 02:22:38;;;;;;;18.45;7.10;;;;;;;2.62;78.62;97137.94;5067598;28;20136;-52
2023/06/06 02:25:06;;;;;;;19.48;7.60;;;;;;;2.73;78.16;97144.44;5068414;28;20052;-50
2023/06/06 02:27:34;;;;;;;17.60;7.03;;;;;;;2.72;78.53;97152.47;5069435;28;20048;-49
2023/06/06 02:30:06;;;;;;;19.38;6.85;;;;;;;2.70;78.26;97147.44;5064773;28;20055;-49
2023/06/06 02:32:33;;;;;;;18.40;7.20;;;;;;;2.66;78.97;97147.00;5069570;28;20052;-50
2023/06/06 02:35:03;;;;;;;14.68;7.35;;;;;;;2.55;78.89;97141.47;5064999;28;20103;-51
2023/06/06 02:37:32;;;;;;;14.80;6.93;;;;;;;2.44;79.64;97146.25;5065310;28;20486;-49
2023/06/06 02:40:08;;;;;;;13.85;6.82;;;;;;;2.47;79.36;97139.81;5069009;28;20045;-52
2023/06/06 02:42:38;;;;;;;19.40;7.10;;;;;;;2.50;79.46;97139.44;5064912;28;20136;-57
2023/06/06 02:45:07;;;;;;;17.95;6.45;;;;;;;2.49;78.92;97137.81;5069285;28;20057;-52
2023/06/06 02:47:34;;;;;;;19.08;6.53;;;;;;;2.56;78.86;97138.66;5061906;28;20427;-50
2023/06/06 02:50:02;;;;;;;18.38;6.78;;;;;;;2.56;78.53;97138.66;5055117;28;20045;-50
2023/06/06 02:52:31;;;;;;;12.02;6.18;;;;;;;2.50;78.48;97145.47;5051333;28;20041;-51
2023/06/06 02:54:59;;;;;;;15.70;6.63;;;;;;;2.45;79.08;97141.81;5055596;28;20045;-50
2023/06/06 02:57:26;;;;;;;15.02;6.45;;;;;;;2.51;79.25;97159.38;5052076;28;20052;-49
2023/06/06 02:59:53;;;;;;;17.38;6.97;;;;;;;2.54;78.85;97151.13;5055778;28;20048;-50
2023/06/06 03:02:20;;;;;;;16.90;7.15;;;;;;;2.50;78.92;97158.56;5051258;28;20049;-50
2023/06/06 03:04:46;;;;;;;17.33;6.68;;;;;;;2.49;78.84;97159.56;5055561;28;20049;-50
2023/06/06 03:07:16;;;;;;;19.10;7.05;;;;;;;2.44;78.31;97161.16;5050538;28;20137;-50
2023/06/06 03:09:43;;;;;;;12.90;6.78;;;;;;;2.33;78.76;97162.47;5055540;28;20068;-51
2023/06/06 03:12:13;;;;;;;14.73;6.80;;;;;;;2.36;78.98;97164.69;5051031;28;20053;-51
2023/06/06 03:14:40;;;;;;;13.00;6.43;;;;;;;2.29;79.16;97164.66;5050957;28;20049;-50
2023/06/06 03:17:18;;;;;;;15.15;6.80;;;;;;;2.23;79.30;97161.97;5054849;28;20095;-51
2023/06/06 03:19:48;;;;;;;15.85;6.72;;;;;;;2.15;79.77;97168.16;5052041;28;20055;-50
2023/06/06 03:22:17;;;;;;;16.27;7.05;;;;;;;2.10;79.72;97160.06;5055205;28;20548;-52
2023/06/06 03:24:49;;;;;;;14.48;6.97;;;;;;;1.99;80.09;97153.50;5053288;28;20045;-51
2023/06/06 03:27:17;;;;;;;18.13;7.00;;;;;;;1.94;80.48;97155.06;5054084;28;20556;-49
2023/06/06 03:29:43;;;;;;;16.38;7.13;;;;;;;2.04;80.67;97163.41;5052217;28;20076;-50
2023/06/06 03:32:10;;;;;;;16.05;7.30;;;;;;;1.90;80.72;97154.63;5052786;28;20045;-50
2023/06/06 03:34:39;;;;;;;15.73;7.05;;;;;;;1.82;81.01;97152.97;5051923;28;20057;-49
2023/06/06 03:37:06;;;;;;;17.20;7.50;;;;;;;1.90;80.83;97152.03;5054236;28;20049;-50
2023/06/06 03:39:33;;;;;;;17.65;7.60;;;;;;;1.90;80.67;97158.06;5052330;28;20056;-50
2023/06/06 03:42:00;;;;;;;17.52;8.15;;;;;;;1.94;80.83;97157.69;5053039;28;20049;-50
2023/06/06 03:44:28;;;;;;;15.43;7.75;;;;;;;1.85;80.92;97149.16;5054850;28;20087;-51
2023/06/06 03:46:55;;;;;;;15.43;8.00;;;;;;;1.88;81.48;97154.00;5049697;28;20418;-50
2023/06/06 03:49:22;;;;;;;16.90;7.90;;;;;;;1.87;81.46;97149.78;5054140;28;20056;-50
2023/06/06 03:51:48;;;;;;;15.43;7.93;;;;;;;1.84;81.22;97145.75;5049958;28;20049;-51
2023/06/06 03:54:15;;;;;;;19.25;8.07;;;;;;;1.86;80.82;97148.16;5054537;28;20056;-50
2023/06/06 03:56:42;;;;;;;18.67;8.27;;;;;;;1.96;80.96;97147.84;5052126;28;20048;-50
2023/06/06 03:59:12;;;;;;;17.85;8.57;;;;;;;1.96;80.29;97148.66;5074092;28;20049;-50
2023/06/06 04:01:40;;;;;;;19.67;9.05;;;;;;;1.97;80.29;97147.66;5069305;28;20051;-51
2023/06/06 04:04:08;;;;;;;20.13;9.40;;;;;;;1.89;80.07;97150.38;5073953;28;20400;-52
2023/06/06 04:06:37;;;;;;;20.35;9.05;;;;;;;1.89;80.60;97155.63;5057404;28;20072;-52
2023/06/06 04:09:08;;;;;;;29.00;10.83;;;;;;;1.82;81.39;97154.75;5054215;28;20127;-50
2023/06/06 04:11:35;;;;;;;28.00;10.20;;;;;;;1.85;80.89;97157.00;5049362;28;20524;-50
2023/06/06 04:14:02;;;;;;;26.95;11.15;;;;;;;1.87;80.88;97158.44;5051036;28;20106;-50
2023/06/06 04:16:29;;;;;;;26.38;10.45;;;;;;;1.87;80.79;97165.44;5054137;28;20049;-50
2023/06/06 04:18:56;;;;;;;23.40;10.55;;;;;;;1.77;81.30;97160.53;5049955;28;20498;-50
2023/06/06 04:21:22;;;;;;;27.88;11.05;;;;;;;1.84;81.09;97168.47;5052797;28;20041;-50
2023/06/06 04:23:49;;;;;;;28.08;11.32;;;;;;;1.81;81.37;97161.78;5051145;28;20049;-51
2023/06/06 04:26:24;;;;;;;22.77;11.02;;;;;;;1.86;80.64;97163.84;5052775;28;20049;-49
2023/06/06 04:28:53;;;;;;;30.67;12.23;;;;;;;1.83;81.21;97174.66;5050446;28;20047;-50
2023/06/06 04:31:23;;;;;;;32.08;11.75;;;;;;;1.78;81.04;97175.22;5053384;28;20467;-49
2023/06/06 04:33:53;;;;;;;31.35;12.02;;;;;;;1.83;81.41;97172.06;5050679;28;20052;-50
2023/06/06 04:36:23;;;;;;;28.52;12.63;;;;;;;1.88;81.25;97182.75;5053271;28;20049;-50
2023/06/06 04:38:51;;;;;;;29.58;13.07;;;;;;;1.89;81.38;97172.13;5049000;28;20043;-50
2023/06/06 04:41:20;;;;;;;34.92;13.50;;;;;;;1.94;81.35;97173.38;5053582;28;20140;-50
2023/06/06 04:44:08;;;;;;;32.50;13.18;;;;;;;1.95;81.04;97174.97;5048376;28;20486;-51
2023/06/06 04:46:36;;;;;;;37.50;13.05;;;;;;;1.95;80.86;97174.97;5053397;28;20049;-50
2023/06/06 04:49:02;;;;;;;33.80;12.88;;;;;;;1.96;80.25;97171.38;5048352;28;20076;-50
2023/06/06 04:51:29;;;;;;;27.88;12.10;;;;;;;1.86;80.69;97172.50;5048870;28;20490;-49
2023/06/06 04:53:58;;;;;;;35.83;13.10;;;;;;;1.86;80.44;97169.88;5053596;28;20047;-50
2023/06/06 04:56:28;;;;;;;30.60;12.68;;;;;;;1.89;80.08;97166.91;5048781;28;20099;-50
2023/06/06 04:58:56;;;;;;;37.58;12.55;;;;;;;1.83;80.78;97172.84;5053292;28;20041;-50
2023/06/06 05:01:23;;;;;;;31.77;13.77;;;;;;;1.81;80.99;97161.78;5047741;28;20048;-50
2023/06/06 05:03:50;;;;;;;31.92;12.75;;;;;;;1.74;80.94;97168.75;5053541;28;20048;-51
2023/06/06 05:06:17;;;;;;;41.83;13.27;;;;;;;1.71;81.04;97162.09;5048264;28;20207;-51
2023/06/06 05:08:44;;;;;;;30.25;12.07;;;;;;;1.77;81.25;97170.19;5052937;28;20037;-50
2023/06/06 05:11:11;;;;;;;37.40;12.98;;;;;;;1.67;81.60;97162.63;5048494;28;20303;-50
2023/06/06 05:13:39;;;;;;;34.38;13.70;;;;;;;1.73;81.67;97165.31;5050245;28;20049;-50
2023/06/06 05:16:07;;;;;;;35.50;13.20;;;;;;;1.85;81.33;97167.44;5052948;28;20449;-51
2023/06/06 05:18:34;;;;;;;31.10;12.63;;;;;;;1.97;80.72;97165.16;5048266;28;20490;-49
2023/06/06 05:21:02;;;;;;;30.67;12.07;;;;;;;1.98;80.31;97166.75;5052706;28;20060;-52
2023/06/06 05:23:29;;;;;;;31.15;12.10;;;;;;;2.03;80.88;97173.06;5048455;28;20410;-50
2023/06/06 05:25:57;;;;;;;31.90;13.27;;;;;;;2.08;80.65;97168.06;5053132;28;20049;-50
2023/06/06 05:28:24;;;;;;;27.88;11.88;;;;;;;1.92;80.29;97163.91;5048340;28;20475;-52
2023/06/06 05:30:52;;;;;;;31.83;12.85;;;;;;;1.95;81.04;97167.97;5052694;28;20049;-50
2023/06/06 05:33:19;;;;;;;34.53;12.63;;;;;;;2.06;80.36;97169.28;5048452;28;20044;-50
2023/06/06 05:35:47;;;;;;;30.40;12.95;;;;;;;2.10;80.56;97175.75;5052669;28;20102;-49
2023/06/06 05:38:16;;;;;;;30.10;12.13;;;;;;;2.17;80.41;97178.44;5049753;28;20383;-50
2023/06/06 05:40:42;;;;;;;26.50;11.55;;;;;;;2.13;80.68;97172.75;5053018;28;20067;-50
2023/06/06 05:43:10;;;;;;;28.98;11.77;;;;;;;2.14;80.49;97179.59;5048127;28;20049;-50
2023/06/06 05:45:36;;;;;;;27.10;11.70;;;;;;;2.04;80.49;97182.53;5052784;28;20040;-50
2023/06/06 05:48:04;;;;;;;23.63;10.60;;;;;;;2.10;79.92;97178.34;5047403;28;20051;-50
2023/06/06 05:50:30;;;;;;;25.38;11.55;;;;;;;2.09;80.40;97179.34;5052234;28;20045;-51
2023/06/06 05:52:58;;;;;;;25.77;10.13;;;;;;;2.00;80.59;97176.06;5011563;28;20467;-52
2023/06/06 05:55:27;;;;;;;28.58;11.00;;;;;;;2.11;80.85;97178.16;5050199;28;20045;-51
2023/06/06 05:57:55;;;;;;;32.40;9.85;;;;;;;2.07;80.53;97176.94;5033518;28;20037;-51
2023/06/06 06:00:27;;;;;;;22.45;9.57;;;;;;;2.13;80.68;97183.22;5053877;28;20051;-51
2023/06/06 06:02:55;;;;;;;;;;;;;;;2.27;82.00;97176.28;5032777;28;20048;-50
2023/06/06 06:05:23;;;;;;;19.15;8.43;;;;;;;2.26;80.92;97179.91;5062680;28;19920;-50
2023/06/06 06:07:54;;;;;;;20.33;9.10;;;;;;;2.23;80.00;97175.84;5037110;28;20046;-52
2023/06/06 06:10:21;;;;;;;24.67;9.70;;;;;;;2.27;79.20;97177.09;5054166;28;20045;-50
2023/06/06 06:12:48;;;;;;;30.58;9.60;;;;;;;2.36;80.94;97179.56;5028877;28;20041;-51
2023/06/06 06:15:14;;;;;;;20.17;8.75;;;;;;;2.31;79.88;97185.38;5045176;28;20136;-51
2023/06/06 06:17:41;;;;;;;20.58;9.30;;;;;;;2.31;80.36;97182.78;5032449;28;20120;-50
2023/06/06 06:20:10;;;;;;;22.27;9.32;;;;;;;2.16;80.00;97176.78;5051555;28;20048;-50
2023/06/06 06:22:37;;;;;;;21.15;8.55;;;;;;;2.20;80.10;97181.47;5031548;28;20690;-50
2023/06/06 06:25:05;;;;;;;21.08;8.82;;;;;;;2.18;79.66;97180.81;5053876;28;20494;-50
2023/06/06 06:27:31;;;;;;;20.50;9.18;;;;;;;2.22;79.62;97176.03;5037323;28;20052;-51
2023/06/06 06:30:01;;;;;;;19.10;8.65;;;;;;;2.33;80.39;97186.00;5042492;28;20055;-50
2023/06/06 06:32:28;;;;;;;18.23;8.52;;;;;;;2.43;79.48;97190.91;5024132;28;20051;-50
2023/06/06 06:34:55;;;;;;;16.58;9.55;;;;;;;2.45;79.08;97186.28;5053525;28;20100;-52
2023/06/06 06:37:22;;;;;;;17.58;9.35;;;;;;;2.36;79.00;97187.44;5039662;28;20056;-50
2023/06/06 06:39:49;;;;;;;23.38;10.60;;;;;;;2.50;79.77;97189.16;5050492;28;20072;-50
2023/06/06 06:42:15;;;;;;;19.90;9.43;;;;;;;2.46;79.43;97191.34;5034867;28;20068;-53
2023/06/06 06:44:55;;;;;;;20.73;9.15;;;;;;;2.59;79.30;97202.91;5047619;28;20045;-50
2023/06/06 06:47:22;;;;;;;20.23;10.48;;;;;;;2.47;78.66;97194.75;5034283;28;20064;-52
2023/06/06 06:49:49;;;;;;;22.92;10.35;;;;;;;2.47;79.02;97192.13;5050321;28;20045;-49
2023/06/06 06:52:16;;;;;;;21.77;10.43;;;;;;;2.40;78.78;97188.66;5039150;28;20119;-52
2023/06/06 06:54:45;;;;;;;23.17;10.10;;;;;;;2.48;78.67;97191.97;5032846;28;20037;-50
2023/06/06 06:57:12;;;;;;;24.10;10.55;;;;;;;2.55;78.24;97202.47;5050609;28;20075;-49
2023/06/06 06:59:40;;;;;;;24.67;10.10;;;;;;;2.53;78.76;97201.88;5038002;28;20099;-52
2023/06/06 07:02:07;;;;;;;33.55;10.90;;;;;;;2.62;78.01;97205.13;5064674;28;20099;-50
2023/06/06 07:04:34;;;;;;;24.73;9.88;;;;;;;2.64;77.93;97200.53;5030184;28;20559;-51
2023/06/06 07:07:01;;;;;;;23.60;10.10;;;;;;;2.71;77.77;97200.56;5050960;28;20068;-50
2023/06/06 07:09:27;;;;;;;27.60;11.02;;;;;;;2.77;77.73;97200.63;5040437;28;20116;-50
2023/06/06 07:11:54;;;;;;;27.50;11.18;;;;;;;2.83;77.28;97201.69;5048658;28;20510;-50
2023/06/06 07:14:20;;;;;;;22.02;11.23;;;;;;;2.88;77.21;97207.94;5043901;28;24363;-50
